createdAt,value
2023-02-15T00:01:59.388Z,99733.25
2023-02-15T00:04:47.064Z,99729.63
2023-02-15T00:07:19.863Z,99730.83
2023-02-15T00:09:50.366Z,99725.55
2023-02-15T00:12:20.687Z,99724.30
2023-02-15T00:14:51.012Z,99723.46
2023-02-15T00:17:21.573Z,99711.78
2023-02-15T00:19:51.889Z,99712.09
2023-02-15T00:22:23.142Z,99704.73
2023-02-15T00:24:53.456Z,99702.04
2023-02-15T00:27:23.902Z,99701.92
2023-02-15T00:29:54.256Z,99699.33
2023-02-15T00:32:24.643Z,99703.45
2023-02-15T00:34:54.970Z,99705.91
2023-02-15T00:37:29.351Z,99702.30
2023-02-15T00:39:59.324Z,99705.67
2023-02-15T00:42:30.375Z,99701.59
2023-02-15T00:45:01.695Z,99698.57
2023-02-15T00:47:34.400Z,99695.38
2023-02-15T00:50:06.676Z,99696.45
2023-02-15T00:52:38.641Z,99695.00
2023-02-15T00:55:11.674Z,99689.73
2023-02-15T00:57:42.416Z,99699.46
2023-02-15T01:00:16.411Z,99697.29
2023-02-15T01:02:49.432Z,99695.33
2023-02-15T01:05:21.992Z,99699.23
2023-02-15T01:07:54.740Z,99697.81
2023-02-15T01:10:26.463Z,99698.95
2023-02-15T01:12:59.430Z,99698.66
2023-02-15T01:15:31.292Z,99694.58
2023-02-15T01:18:04.480Z,99693.48
2023-02-15T01:20:40.108Z,99689.08
2023-02-15T01:23:12.457Z,99688.73
2023-02-15T01:25:44.231Z,99684.02
2023-02-15T01:28:16.480Z,99678.98
2023-02-15T01:30:48.584Z,99680.23
2023-02-15T01:33:22.497Z,99679.05
2023-02-15T01:36:00.184Z,99681.73
2023-02-15T01:44:51.283Z,99677.52
2023-02-15T01:50:05.771Z,99670.70
2023-02-15T01:52:38.060Z,99669.31
2023-02-15T01:55:09.954Z,99662.05
2023-02-15T01:57:40.359Z,99662.00
2023-02-15T02:00:12.435Z,99659.38
2023-02-15T02:02:47.274Z,99661.36
2023-02-15T02:05:18.986Z,99657.70
2023-02-15T02:07:50.555Z,99653.80
2023-02-15T02:10:24.764Z,99656.13
2023-02-15T02:12:57.183Z,99654.13
2023-02-15T02:15:34.503Z,99651.44
2023-02-15T02:18:19.426Z,99646.16
2023-02-15T02:21:07.793Z,99650.73
2023-02-15T02:23:51.031Z,99647.81
2023-02-15T02:26:55.894Z,99649.82
2023-02-15T02:29:50.216Z,99653.15
2023-02-15T02:32:48.470Z,99643.03
2023-02-15T02:35:24.001Z,99639.44
2023-02-15T02:38:05.273Z,99638.77
2023-02-15T02:40:42.111Z,99633.73
2023-02-15T02:43:17.708Z,99631.94
2023-02-15T02:45:52.405Z,99628.15
2023-02-15T02:48:24.730Z,99628.04
2023-02-15T02:50:55.009Z,99625.52
2023-02-15T02:53:25.542Z,99626.77
2023-02-15T02:55:58.288Z,99624.55
2023-02-15T02:58:31.907Z,99621.98
2023-02-15T03:01:07.132Z,99622.96
2023-02-15T03:03:40.620Z,99620.34
2023-02-15T03:06:13.980Z,99614.48
2023-02-15T03:08:47.213Z,99607.98
2023-02-15T03:11:17.903Z,99608.30
2023-02-15T03:13:48.981Z,99606.96
2023-02-15T03:16:30.202Z,99608.97
2023-02-15T03:19:03.782Z,99611.69
2023-02-15T03:21:38.082Z,99614.06
2023-02-15T03:24:16.239Z,99612.73
2023-02-15T03:31:15.695Z,99601.17
2023-02-15T03:33:49.742Z,99600.17
2023-02-15T03:36:24.570Z,99603.10
2023-02-15T03:39:00.222Z,99599.45
2023-02-15T03:41:34.396Z,99598.33
2023-02-15T03:44:08.624Z,99598.60
2023-02-15T03:46:44.560Z,99598.60
2023-02-15T03:49:17.746Z,99599.38
2023-02-15T03:51:50.569Z,99595.51
2023-02-15T03:54:36.627Z,99595.23
2023-02-15T03:57:27.055Z,99597.13
2023-02-15T04:00:15.065Z,99595.30
2023-02-15T04:02:51.822Z,99588.52
2023-02-15T04:05:22.114Z,99590.56
2023-02-15T04:07:52.411Z,99588.21
2023-02-15T04:10:40.221Z,99592.29
2023-02-15T04:13:10.585Z,99590.77
2023-02-15T04:15:58.569Z,99592.20
2023-02-15T04:18:46.528Z,99591.29
2023-02-15T04:21:34.442Z,99592.75
2023-02-15T04:24:22.760Z,99588.76
2023-02-15T04:26:54.556Z,99586.91
2023-02-15T04:29:26.279Z,99580.65
2023-02-15T04:31:58.000Z,99587.33
2023-02-15T04:34:28.622Z,99590.40
2023-02-15T04:36:58.953Z,99589.46
2023-02-15T04:39:29.317Z,99585.85
2023-02-15T04:41:59.627Z,99580.67
2023-02-15T04:44:29.899Z,99575.39
2023-02-15T04:47:00.302Z,99580.58
2023-02-15T04:49:30.639Z,99577.16
2023-02-15T04:52:00.947Z,99575.70
2023-02-15T04:54:31.346Z,99572.55
2023-02-15T04:57:01.684Z,99574.92
2023-02-15T04:59:32.079Z,99569.42
2023-02-15T05:02:02.428Z,99571.92
2023-02-15T05:04:32.868Z,99571.56
2023-02-15T05:07:03.485Z,99565.80
2023-02-15T05:09:33.855Z,99571.92
2023-02-15T05:12:04.334Z,99570.50
2023-02-15T05:14:35.195Z,99571.36
2023-02-15T05:17:06.275Z,99569.00
2023-02-15T05:19:36.658Z,99565.57
2023-02-15T05:22:07.014Z,99565.98
2023-02-15T05:24:54.925Z,99556.39
2023-02-15T05:27:43.119Z,99551.77
2023-02-15T05:30:16.204Z,99553.50
2023-02-15T05:32:46.822Z,99552.22
2023-02-15T05:35:18.754Z,99548.82
2023-02-15T05:37:49.062Z,99553.34
2023-02-15T05:40:19.859Z,99557.43
2023-02-15T05:42:50.229Z,99559.02
2023-02-15T05:45:20.927Z,99558.10
2023-02-15T05:47:51.270Z,99560.55
2023-02-15T05:50:22.226Z,99559.44
2023-02-15T05:52:52.753Z,99558.08
2023-02-15T05:55:23.347Z,99550.96
2023-02-15T05:57:53.789Z,99563.70
2023-02-15T06:00:24.754Z,99568.29
2023-02-15T06:02:55.079Z,99569.80
2023-02-15T06:05:25.464Z,99566.27
2023-02-15T06:07:55.785Z,99558.78
2023-02-15T06:10:26.050Z,99562.05
2023-02-15T06:12:56.416Z,99565.27
2023-02-15T06:15:26.785Z,99568.26
2023-02-15T06:17:57.140Z,99571.48
2023-02-15T06:20:27.534Z,99574.02
2023-02-15T06:22:57.828Z,99574.59
2023-02-15T06:25:28.294Z,99578.13
2023-02-15T06:27:58.719Z,99574.96
2023-02-15T06:30:29.215Z,99579.58
2023-02-15T06:33:00.194Z,99578.88
2023-02-15T06:35:30.676Z,99577.69
2023-02-15T06:38:01.058Z,99578.08
2023-02-15T06:40:31.524Z,99583.55
2023-02-15T06:43:02.240Z,99578.16
2023-02-15T06:45:32.567Z,99588.48
2023-02-15T06:48:02.925Z,99589.64
2023-02-15T06:50:34.221Z,99593.33
2023-02-15T06:53:04.595Z,99595.55
2023-02-15T06:55:35.043Z,99596.46
2023-02-15T06:58:05.458Z,99600.51
2023-02-15T07:00:35.901Z,99604.40
2023-02-15T07:03:06.223Z,99604.55
2023-02-15T07:05:37.827Z,99608.33
2023-02-15T07:08:08.205Z,99604.15
2023-02-15T07:10:38.492Z,99602.70
2023-02-15T07:13:08.764Z,99598.05
2023-02-15T07:15:39.496Z,99602.73
2023-02-15T07:18:10.021Z,99601.77
2023-02-15T07:20:42.533Z,99602.90
2023-02-15T07:23:12.870Z,99605.14
2023-02-15T07:25:43.278Z,99603.80
2023-02-15T07:28:13.761Z,99602.04
2023-02-15T07:30:44.079Z,99602.96
2023-02-15T07:33:28.131Z,99601.63
2023-02-15T07:36:00.035Z,99602.83
2023-02-15T07:38:32.075Z,99591.52
2023-02-15T07:41:03.319Z,99595.36
2023-02-15T07:43:34.418Z,99595.98
2023-02-15T07:46:05.490Z,99591.73
2023-02-15T07:48:36.054Z,99596.23
2023-02-15T07:51:09.723Z,99595.88
2023-02-15T07:53:40.570Z,99593.95
2023-02-15T07:56:13.274Z,99592.21
2023-02-15T07:58:52.692Z,99588.98
2023-02-15T08:01:25.104Z,99588.07
2023-02-15T08:03:55.852Z,99585.14
2023-02-15T08:06:27.421Z,99583.53
2023-02-15T08:08:57.767Z,99586.61
2023-02-15T08:11:34.608Z,99588.61
2023-02-15T08:14:07.624Z,99586.13
2023-02-15T08:16:40.138Z,99585.29
2023-02-15T08:19:11.836Z,99589.68
2023-02-15T08:21:43.504Z,99588.64
2023-02-15T08:24:15.142Z,99588.58
2023-02-15T08:26:47.661Z,99587.69
2023-02-15T08:29:19.792Z,99585.39
2023-02-15T08:31:50.424Z,99581.84
2023-02-15T08:34:21.908Z,99582.64
2023-02-15T08:36:52.286Z,99580.94
2023-02-15T08:39:23.171Z,99582.30
2023-02-15T08:41:53.450Z,99578.00
2023-02-15T08:44:23.836Z,99573.58
2023-02-15T08:46:55.594Z,99568.38
2023-02-15T08:49:25.943Z,99567.84
2023-02-15T08:51:56.222Z,99569.30
2023-02-15T08:54:26.714Z,99566.10
2023-02-15T08:56:57.175Z,99557.88
2023-02-15T08:59:27.963Z,99558.98
2023-02-15T09:01:58.750Z,99556.02
2023-02-15T09:04:29.124Z,99561.91
2023-02-15T09:06:59.511Z,99557.23
2023-02-15T09:09:29.836Z,99556.36
2023-02-15T09:12:00.153Z,99557.06
2023-02-15T09:14:30.701Z,99555.58
2023-02-15T09:23:57.162Z,99549.00
2023-02-15T09:26:29.022Z,99544.04
2023-02-15T09:29:01.556Z,99539.41
2023-02-15T09:31:33.694Z,99537.36
2023-02-15T09:34:04.418Z,99536.63
2023-02-15T09:36:36.646Z,99534.35
2023-02-15T09:39:11.483Z,99536.42
2023-02-15T09:42:05.255Z,99539.23
2023-02-15T09:44:48.651Z,99537.71
2023-02-15T09:47:41.349Z,99533.14
2023-02-15T09:50:17.706Z,99537.55
2023-02-15T09:53:03.020Z,99538.58
2023-02-15T09:55:46.412Z,99542.48
2023-02-15T09:58:20.414Z,99544.38
2023-02-15T10:00:56.588Z,99547.09
2023-02-15T10:03:39.908Z,99550.98
2023-02-15T10:06:34.320Z,99552.17
2023-02-15T10:09:24.086Z,99554.12
2023-02-15T10:12:06.520Z,99554.77
2023-02-15T10:14:57.144Z,99555.36
2023-02-15T10:17:37.729Z,99556.10
2023-02-15T10:20:18.898Z,99558.59
2023-02-15T10:23:00.742Z,99561.68
2023-02-15T10:25:42.241Z,99561.55
2023-02-15T10:28:19.142Z,99561.27
2023-02-15T10:30:52.277Z,99557.48
2023-02-15T10:33:38.033Z,99557.23
2023-02-15T10:36:19.091Z,99554.08
2023-02-15T10:38:55.972Z,99551.58
2023-02-15T10:41:37.807Z,99553.73
2023-02-15T10:44:20.250Z,99548.97
2023-02-15T10:47:01.587Z,99542.88
2023-02-15T10:49:43.541Z,99548.02
2023-02-15T10:52:24.439Z,99547.55
2023-02-15T10:55:00.540Z,99542.86
2023-02-15T10:57:39.306Z,99545.83
2023-02-15T11:00:18.179Z,99543.65
2023-02-15T11:03:13.416Z,99541.94
2023-02-15T11:05:51.346Z,99538.79
2023-02-15T11:08:22.157Z,99535.26
2023-02-15T11:10:55.443Z,99530.33
2023-02-15T11:13:28.469Z,99525.40
2023-02-15T11:15:57.960Z,99526.42
2023-02-15T11:18:33.366Z,99527.02
2023-02-15T11:21:05.930Z,99521.89
2023-02-15T11:23:37.582Z,99521.13
2023-02-15T11:26:12.626Z,99525.09
2023-02-15T11:28:47.350Z,99523.31
2023-02-15T11:31:20.683Z,99524.09
2023-02-15T11:33:53.701Z,99524.38
2023-02-15T11:36:23.827Z,99524.06
2023-02-15T11:38:59.076Z,99516.37
2023-02-15T11:41:32.813Z,99519.28
2023-02-15T11:44:07.278Z,99518.71
2023-02-15T11:46:37.461Z,99512.86
2023-02-15T11:49:14.280Z,99504.76
2023-02-15T11:51:44.761Z,99497.37
2023-02-15T11:54:15.214Z,99492.13
2023-02-15T11:56:46.475Z,99491.85
2023-02-15T11:59:24.277Z,99484.08
2023-02-15T12:01:54.673Z,99487.70
2023-02-15T12:04:28.385Z,99489.38
2023-02-15T12:07:02.724Z,99487.10
2023-02-15T12:09:37.409Z,99486.04
2023-02-15T12:12:34.241Z,99485.23
2023-02-15T12:15:07.308Z,99483.27
2023-02-15T12:17:41.664Z,99479.58
2023-02-15T12:20:26.229Z,99477.59
2023-02-15T12:23:03.466Z,99477.09
2023-02-15T12:25:39.193Z,99473.16
2023-02-15T12:28:25.345Z,99474.79
2023-02-15T12:30:56.999Z,99471.50
2023-02-15T12:33:31.484Z,99468.98
2023-02-15T12:36:04.440Z,99474.71
2023-02-15T12:38:35.151Z,99469.11
2023-02-15T12:41:07.539Z,99465.48
2023-02-15T12:43:39.412Z,99463.76
2023-02-15T12:46:24.260Z,99461.45
2023-02-15T12:51:52.148Z,99452.87
2023-02-15T12:54:41.010Z,99454.24
2023-02-15T12:57:28.818Z,99455.36
2023-02-15T13:00:01.489Z,99451.20
2023-02-15T13:02:36.684Z,99446.17
2023-02-15T13:05:20.754Z,99443.44
2023-02-15T13:07:53.172Z,99440.58
2023-02-15T13:10:26.530Z,99438.71
2023-02-15T13:12:58.729Z,99430.13
2023-02-15T13:15:34.930Z,99427.40
2023-02-15T13:18:06.695Z,99424.66
2023-02-15T13:20:41.584Z,99423.45
2023-02-15T13:23:24.965Z,99424.20
2023-02-15T13:25:55.763Z,99424.73
2023-02-15T13:28:29.378Z,99420.38
2023-02-15T13:30:59.949Z,99415.86
2023-02-15T13:33:32.879Z,99419.63
2023-02-15T13:36:04.561Z,99414.17
2023-02-15T13:39:08.650Z,99408.21
2023-02-15T13:41:50.491Z,99405.20
2023-02-15T13:44:26.646Z,99402.54
2023-02-15T13:47:06.799Z,99398.81
2023-02-15T13:49:45.712Z,99396.92
2023-02-15T13:52:22.459Z,99395.90
2023-02-15T13:54:59.964Z,99394.11
2023-02-15T13:57:45.545Z,99389.40
2023-02-15T14:00:24.256Z,99392.30
2023-02-15T14:03:34.286Z,99390.84
2023-02-15T14:06:18.832Z,99385.20
2023-02-15T14:09:01.260Z,99372.75
2023-02-15T14:11:38.346Z,99376.39
2023-02-15T14:14:20.985Z,99374.28
2023-02-15T14:17:06.630Z,99369.77
2023-02-15T14:19:43.265Z,99375.08
2023-02-15T14:22:22.713Z,99365.73
2023-02-15T14:25:05.050Z,99369.61
2023-02-15T14:27:45.893Z,99368.52
2023-02-15T14:30:21.098Z,99366.73
2023-02-15T14:32:55.267Z,99365.42
2023-02-15T14:35:28.856Z,99364.46
2023-02-15T14:38:03.352Z,99362.94
2023-02-15T14:40:56.990Z,99364.48
2023-02-15T14:43:34.869Z,99358.53
2023-02-15T14:46:12.398Z,99360.63
2023-02-15T14:48:46.248Z,99359.73
2023-02-15T14:51:59.681Z,99361.48
2023-02-15T14:54:57.924Z,99363.61
2023-02-15T14:57:34.747Z,99363.52
2023-02-15T15:00:24.061Z,99362.60
2023-02-15T15:02:55.908Z,99362.40
2023-02-15T15:05:31.122Z,99365.11
2023-02-15T15:08:02.775Z,99362.98
2023-02-15T15:10:47.524Z,99359.78
2023-02-15T15:13:43.647Z,99355.52
2023-02-15T15:16:36.038Z,99355.35
2023-02-15T15:19:07.532Z,99349.96
2023-02-15T15:21:58.183Z,99347.27
2023-02-15T15:24:53.135Z,99341.18
2023-02-15T15:27:53.474Z,99345.98
2023-02-15T15:31:00.874Z,99349.35
2023-02-15T15:34:23.720Z,99349.13
2023-02-15T15:37:11.638Z,99345.44
2023-02-15T15:40:25.125Z,99347.96
2023-02-15T15:43:12.824Z,99350.60
2023-02-15T15:45:55.239Z,99350.06
2023-02-15T15:48:35.607Z,99355.84
2023-02-15T15:51:11.689Z,99352.13
2023-02-15T15:53:46.130Z,99354.85
2023-02-15T15:56:18.907Z,99357.94
2023-02-15T15:58:53.420Z,99355.48
2023-02-15T16:01:30.614Z,99350.64
2023-02-15T16:04:02.110Z,99350.69
2023-02-15T16:06:37.527Z,99349.14
2023-02-15T16:09:15.743Z,99351.41
2023-02-15T16:11:46.632Z,99347.28
2023-02-15T16:14:19.482Z,99343.63
2023-02-15T16:16:56.247Z,99347.83
2023-02-15T16:19:29.506Z,99344.13
2023-02-15T16:22:01.714Z,99341.79
2023-02-15T16:24:59.208Z,99341.23
2023-02-15T16:27:36.799Z,99345.87
2023-02-15T16:30:28.698Z,99346.80
2023-02-15T16:33:08.316Z,99344.09
2023-02-15T16:35:39.820Z,99347.79
2023-02-15T16:38:12.640Z,99342.57
2023-02-15T16:40:52.075Z,99339.75
2023-02-15T16:43:26.902Z,99338.48
2023-02-15T16:46:06.886Z,99336.52
2023-02-15T16:48:40.956Z,99342.84
2023-02-15T16:51:11.385Z,99345.92
2023-02-15T16:53:41.642Z,99341.02
2023-02-15T16:56:11.947Z,99343.06
2023-02-15T16:58:46.684Z,99344.91
2023-02-15T17:01:17.971Z,99340.30
2023-02-15T17:03:54.395Z,99346.98
2023-02-15T17:06:27.367Z,99348.73
2023-02-15T17:08:56.678Z,99350.46
2023-02-15T17:11:38.052Z,99353.08
2023-02-15T17:14:24.958Z,99363.55
2023-02-15T17:16:57.509Z,99362.33
2023-02-15T17:19:30.092Z,99363.63
2023-02-15T17:22:01.614Z,99358.78
2023-02-15T17:24:43.444Z,99357.59
2023-02-15T17:27:18.289Z,99349.63
2023-02-15T17:29:52.594Z,99352.91
2023-02-15T17:32:25.490Z,99352.78
2023-02-15T17:35:10.368Z,99357.67
2023-02-15T17:37:49.537Z,99363.23
2023-02-15T17:40:27.363Z,99366.77
2023-02-15T17:42:58.180Z,99365.77
2023-02-15T17:45:35.038Z,99362.55
2023-02-15T17:48:16.524Z,99363.70
2023-02-15T17:50:46.806Z,99363.85
2023-02-15T17:53:19.454Z,99361.73
2023-02-15T17:55:49.780Z,99355.64
2023-02-15T17:58:22.493Z,99354.30
2023-02-15T18:01:13.736Z,99354.65
2023-02-15T18:04:04.786Z,99353.75
2023-02-15T18:06:53.610Z,99354.52
2023-02-15T18:09:42.407Z,99355.34
2023-02-15T18:12:22.411Z,99352.73
2023-02-15T18:14:54.152Z,99350.27
2023-02-15T18:17:30.130Z,99356.30
2023-02-15T18:20:01.541Z,99353.48
2023-02-15T18:22:32.335Z,99353.52
2023-02-15T18:25:03.028Z,99352.99
2023-02-15T18:27:33.352Z,99347.64
2023-02-15T18:30:03.712Z,99349.11
2023-02-15T18:32:37.421Z,99350.11
2023-02-15T18:35:08.893Z,99348.94
2023-02-15T18:37:39.290Z,99346.40
2023-02-15T18:40:16.953Z,99345.06
2023-02-15T18:42:48.946Z,99345.58
2023-02-15T18:45:21.496Z,99347.63
2023-02-15T18:47:52.360Z,99349.40
2023-02-15T18:50:23.373Z,99348.03
2023-02-15T18:52:53.926Z,99350.79
2023-02-15T18:55:25.871Z,99350.85
2023-02-15T18:57:57.902Z,99351.94
2023-02-15T19:00:30.187Z,99351.23
2023-02-15T19:03:01.985Z,99352.39
2023-02-15T19:05:33.385Z,99353.25
2023-02-15T19:08:04.523Z,99349.89
2023-02-15T19:10:35.439Z,99349.68
2023-02-15T19:13:06.800Z,99350.78
2023-02-15T19:15:37.170Z,99350.14
2023-02-15T19:18:08.278Z,99349.39
2023-02-15T19:20:40.900Z,99349.48
2023-02-15T19:23:17.886Z,99351.33
2023-02-15T19:25:48.797Z,99352.59
2023-02-15T19:28:21.269Z,99353.85
2023-02-15T19:30:51.620Z,99352.33
2023-02-15T19:33:23.715Z,99350.15
2023-02-15T19:35:57.071Z,99352.19
2023-02-15T19:38:30.233Z,99347.34
2023-02-15T19:41:04.740Z,99349.19
2023-02-15T19:43:36.242Z,99351.16
2023-02-15T19:46:07.196Z,99350.03
2023-02-15T19:48:37.888Z,99342.92
2023-02-15T19:51:08.503Z,99343.83
2023-02-15T19:53:39.311Z,99345.51
2023-02-15T19:56:14.179Z,99348.08
2023-02-15T19:58:44.535Z,99345.86
2023-02-15T20:01:14.861Z,99348.09
2023-02-15T20:03:45.192Z,99348.13
2023-02-15T20:06:17.748Z,99349.86
2023-02-15T20:08:48.600Z,99345.02
2023-02-15T20:11:18.906Z,99350.94
2023-02-15T20:13:49.568Z,99349.92
2023-02-15T20:16:20.049Z,99353.06
2023-02-15T20:19:00.727Z,99351.59
2023-02-15T20:21:31.470Z,99349.50
2023-02-15T20:24:02.406Z,99348.73
2023-02-15T20:26:33.040Z,99345.39
2023-02-15T20:29:04.602Z,99340.06
2023-02-15T20:31:35.156Z,99341.69
2023-02-15T20:34:05.569Z,99341.91
2023-02-15T20:36:36.531Z,99344.77
2023-02-15T20:39:16.266Z,99346.45
2023-02-15T20:41:49.033Z,99344.47
2023-02-15T20:44:26.975Z,99344.20
2023-02-15T20:46:58.648Z,99342.61
2023-02-15T20:49:29.761Z,99343.08
2023-02-15T20:52:15.444Z,99344.91
2023-02-15T20:54:45.788Z,99346.70
2023-02-15T20:57:16.772Z,99348.61
2023-02-15T20:59:47.304Z,99350.55
2023-02-15T21:02:23.803Z,99345.39
2023-02-15T21:04:55.414Z,99344.39
2023-02-15T21:07:25.827Z,99340.15
2023-02-15T21:09:56.786Z,99341.04
2023-02-15T21:12:34.333Z,99335.31
2023-02-15T21:15:08.718Z,99340.88
2023-02-15T21:17:39.404Z,99342.08
2023-02-15T21:20:14.243Z,99340.77
2023-02-15T21:22:44.611Z,99339.92
2023-02-15T21:25:17.338Z,99344.17
2023-02-15T21:27:47.650Z,99339.70
2023-02-15T21:30:21.671Z,99343.93
2023-02-15T21:32:52.463Z,99341.81
2023-02-15T21:35:23.244Z,99343.17
2023-02-15T21:37:54.314Z,99343.41
2023-02-15T21:40:27.309Z,99343.50
2023-02-15T21:43:13.588Z,99346.05
2023-02-15T21:46:01.632Z,99344.98
2023-02-15T21:48:31.931Z,99346.73
2023-02-15T21:51:19.565Z,99346.76
2023-02-15T21:53:49.928Z,99344.33
2023-02-15T21:56:22.074Z,99347.63
2023-02-15T21:58:52.393Z,99352.51
2023-02-15T22:08:36.932Z,99353.11
2023-02-15T22:11:14.211Z,99361.71
2023-02-15T22:13:44.860Z,99353.17
2023-02-15T22:16:18.701Z,99348.39
2023-02-15T22:18:49.238Z,99350.50
2023-02-15T22:21:20.783Z,99341.24
2023-02-15T22:23:51.250Z,99347.75
2023-02-15T22:26:24.246Z,99347.29
2023-02-15T22:28:53.057Z,99346.09
2023-02-15T22:31:24.501Z,99344.84
2023-02-15T22:33:55.332Z,99346.47
2023-02-15T22:36:27.455Z,99344.64
2023-02-15T22:38:58.653Z,99345.00
2023-02-15T22:41:31.728Z,99346.09
2023-02-15T22:44:02.187Z,99347.23
2023-02-15T22:46:32.669Z,99344.92
2023-02-15T22:49:03.010Z,99341.13
2023-02-15T22:51:33.595Z,99339.95
2023-02-15T22:54:04.372Z,99343.01
2023-02-15T22:56:38.199Z,99340.89
2023-02-15T22:59:11.893Z,99339.67
2023-02-15T23:01:43.289Z,99337.59
2023-02-15T23:04:19.942Z,99339.86
2023-02-15T23:06:51.489Z,99339.25
2023-02-15T23:09:22.400Z,99338.63
2023-02-15T23:11:53.796Z,99333.19
2023-02-15T23:14:29.285Z,99336.17
2023-02-15T23:17:00.541Z,99333.14
2023-02-15T23:19:31.164Z,99328.66
2023-02-15T23:22:01.494Z,99331.64
2023-02-15T23:24:34.516Z,99333.23
2023-02-15T23:27:17.298Z,99332.49
2023-02-15T23:29:47.670Z,99333.35
2023-02-15T23:32:20.249Z,99331.33
2023-02-15T23:34:50.726Z,99330.48
2023-02-15T23:37:21.052Z,99329.06
2023-02-15T23:40:10.385Z,99324.09
2023-02-15T23:42:40.806Z,99326.70
2023-02-15T23:45:22.175Z,99331.10
2023-02-15T23:48:09.750Z,99327.63
2023-02-15T23:50:40.306Z,99328.64
2023-02-15T23:53:12.516Z,99329.23
2023-02-15T23:55:45.203Z,99331.16
2023-02-15T23:58:17.957Z,99329.54
